LOWILSZA

Guest
Details From LOWI - Innsbruck Kranebitten
To LSZA - Lugano
Flight Number -
Tags generated
Created
Modified
Stats Distance 126 nm / 233 km
Max Altitude 8,000 ft / 2,438 m
Waypoints 3
Social Downloads 0
Likes 0
Share VATSIM

Download

Looking for another format? Having issues loading an existing format? Contact us
Advertisement - Login to hide

Notes

Basic altitude profile: - Ascent Rate: 2500ft/min - Ascent Speed: 250kts - Cruise Altitude: 35000ft - Cruise Speed: 420kts - Descent Rate: 1500ft/min - Descent Speed: 250kts Options: - Use NATs: yes - Use PACOTS: yes - Use low airways: no - Use high airways: yes

Route

LOWI OTSIS LSZA

ID Type Via Altitude Latitude Longitude Leg Dist Tot Dist Heading (true) Name
O LOWI APT - 0 ft / 0 m 47.26023˚ 11.34397˚ - 0 nm - Innsbruck Kranebitten
OTSIS FIX - 8,000 ft / 2,438 m 47.10074˚ 10.84546˚ 22 nm 22 nm 245° / 245° -
O LSZA APT - 0 ft / 0 m 46.00428˚ 8.91058˚ 103 nm 126 nm 231° / 230° Lugano

Altitude Profile

Advertisement - Login to hide

LOWI

Details ICAO LOWI (INN)
Name Innsbruck Kranebitten
Region Austria
Timezone Europe/Vienna (UTC+2.0)
Stats Elevation 1,906 ft / 581 m (AMSL)
Location 47.260226° 11.343967°
Runways 1
Magnetic Variation 3.071° E

METAR

LOWI 240850Z 06006KT 020V100 9999 FEW014 BKN110 17/14 Q1019 NOSIG

Decode

TAF

TAF LOWI 240515Z 2406/2506 08004KT 9999 FEW007 SCT070 BKN120 TX22/2414Z TN12/2504Z PROB40 TEMPO 2406/2408 12010KT SHRA SCT007 FEW060TCU BKN080 BECMG 2409/2411 08008KT SCT070 FEW070TCU TEMPO 2411/2420 VRB15G25KT 6000 TSRA SCT070CB BKN080 BECMG 2419/2421 27004KT FEW010 PROB40 TEMPO 2500/2506 BKN010

Decode

Departure Runways

ID Width Length Bearing (true) Bearing (mag) Surface Threshold Offset Overrun Length
08 148 ft / 45 m 6,545 ft / 1,995 m 81.02° 77.95° Asphalt 338 ft / 103 m 0 ft / 0 m
26 148 ft / 45 m 6,545 ft / 1,995 m 261.04° 257.97° Asphalt 0 ft / 0 m 0 ft / 0 m

LSZA

Details ICAO LSZA (LUG)
Name Lugano
Region Switzerland
Timezone Europe/Zurich (UTC+2.0)
Stats Elevation 915 ft / 279 m (AMSL)
Location 46.004275° 8.910579°
Runways 1
Magnetic Variation 2.475° E

METAR

LSZA 240850Z VRB03KT 9999 FEW060TCU 21/14 Q1018 NOSIG

Decode

TAF

Not found

Destination Runways

ID Width Length Bearing (true) Bearing (mag) Surface Threshold Offset Overrun Length
01 98 ft / 30 m 4,430 ft / 1,350 m 18.79° 16.31° Asphalt 361 ft / 110 m 0 ft / 0 m
19 98 ft / 30 m 4,430 ft / 1,350 m 198.79° 196.31° Asphalt 673 ft / 205 m 0 ft / 0 m

Approach Navaids

Runway Type Ident Frequency Range Bearing (true) Bearing (mag) Slope Elevation
01 Localiser ILU 111.50 MHz 18 nm / 33 km 18.79° 16.31° - 928 ft / 283 m (AMSL)
01 Glidescope ILU 111.50 MHz 10 nm / 19 km 19.99° 17.51° 6.00° 928 ft / 283 m (AMSL)
01 DME ILU 111.50 MHz 18 nm / 33 km - - - 928 ft / 283 m (AMSL)

Popular Alternatives